Time;durP1;ratioP1;P1;durP2;ratioP2;P2;SDS_P1;SDS_P2;PMS_P1;PMS_P2;Temp;Humidity;BMP_temperature;BMP_pressure;BME280_temperature;BME280_humidity;BME280_pressure;Samples;Min_cycle;Max_cycle;Signal;HPM_P1;HPM_P2
2021/07/04 00:02:08;;;;;;;2.67;2.13;;;17.80;92.90;;;;;;3585400;40;20032;-80
2021/07/04 00:04:34;;;;;;;4.55;2.60;;;17.90;93.20;;;;;;3586959;40;20133;-78
2021/07/04 00:07:00;;;;;;;2.65;2.53;;;17.80;93.80;;;;;;3585612;40;20427;-77
2021/07/04 00:09:26;;;;;;;4.07;3.03;;;17.70;93.60;;;;;;3586613;40;20059;-76
2021/07/04 00:11:52;;;;;;;4.95;3.40;;;17.70;94.00;;;;;;3586823;40;20075;-76
2021/07/04 00:14:18;;;;;;;3.28;3.00;;;17.60;93.90;;;;;;3587366;40;20504;-75
2021/07/04 00:16:44;;;;;;;4.55;4.03;;;17.60;94.30;;;;;;3586620;40;20133;-75
2021/07/04 00:19:10;;;;;;;6.53;4.28;;;17.50;94.40;;;;;;3586172;40;20268;-75
2021/07/04 00:21:36;;;;;;;4.10;3.70;;;17.50;94.90;;;;;;3585275;40;20067;-75
2021/07/04 00:24:03;;;;;;;5.90;4.05;;;17.50;94.80;;;;;;3585311;40;20129;-74
2021/07/04 00:26:29;;;;;;;7.93;6.03;;;17.40;94.80;;;;;;3586536;40;20076;-75
2021/07/04 00:28:55;;;;;;;6.53;5.97;;;17.40;95.30;;;;;;3585552;40;20044;-75
2021/07/04 00:31:21;;;;;;;8.55;6.50;;;17.40;95.20;;;;;;3586495;40;20048;-75
2021/07/04 00:33:47;;;;;;;7.50;5.70;;;17.40;95.30;;;;;;3585306;40;20046;-75
2021/07/04 00:36:13;;;;;;;11.68;6.45;;;17.40;95.40;;;;;;3585435;40;20052;-75
2021/07/04 00:38:39;;;;;;;10.85;9.00;;;17.40;95.30;;;;;;3586590;40;20040;-74
2021/07/04 00:41:05;;;;;;;11.93;9.02;;;17.40;95.30;;;;;;3586199;40;20036;-75
2021/07/04 00:43:31;;;;;;;14.10;7.70;;;17.40;95.50;;;;;;3585470;40;20059;-75
2021/07/04 00:45:57;;;;;;;10.93;8.93;;;17.40;95.50;;;;;;3586022;40;20052;-74
2021/07/04 00:48:23;;;;;;;11.07;8.80;;;17.40;95.50;;;;;;3586178;40;20061;-75
2021/07/04 00:50:49;;;;;;;10.88;9.25;;;17.40;95.60;;;;;;3586419;40;20047;-75
2021/07/04 00:53:15;;;;;;;11.82;9.35;;;17.40;95.70;;;;;;3586255;40;20150;-75
2021/07/04 00:55:41;;;;;;;14.82;11.70;;;17.40;95.70;;;;;;3586860;40;20043;-75
2021/07/04 00:58:07;;;;;;;11.27;9.18;;;17.40;96.40;;;;;;3585709;40;20044;-75
2021/07/04 01:00:37;;;;;;;11.23;8.60;;;17.40;96.20;;;;;;3586524;40;20070;-75
2021/07/04 01:03:06;;;;;;;11.13;7.70;;;17.40;96.20;;;;;;3586035;40;20089;-75
2021/07/04 01:05:34;;;;;;;7.38;6.65;;;17.40;96.80;;;;;;3585889;40;20048;-75
2021/07/04 01:08:01;;;;;;;10.60;7.30;;;17.30;97.00;;;;;;3585221;40;20033;-75
2021/07/04 01:10:29;;;;;;;6.75;6.07;;;17.30;96.60;;;;;;3584787;40;20033;-75
2021/07/04 01:12:57;;;;;;;11.85;9.43;;;17.30;96.80;;;;;;3586674;40;20239;-76
2021/07/04 01:15:28;;;;;;;14.68;9.93;;;17.30;96.80;;;;;;3586154;40;20032;-75
2021/07/04 01:17:57;;;;;;;13.80;10.75;;;17.30;96.80;;;;;;3585354;40;20043;-75
2021/07/04 01:20:25;;;;;;;9.13;8.20;;;17.30;96.80;;;;;;3586339;40;20057;-75
2021/07/04 01:23:02;;;;;;;10.18;9.10;;;17.30;96.80;;;;;;3584721;40;20038;-75
2021/07/04 01:25:30;;;;;;;8.10;6.82;;;17.30;96.80;;;;;;3585443;40;20667;-75
2021/07/04 01:27:57;;;;;;;7.32;6.55;;;17.30;96.50;;;;;;3585959;40;20076;-75
2021/07/04 01:30:24;;;;;;;10.07;7.40;;;17.30;96.60;;;;;;3586196;40;20324;-75
2021/07/04 01:32:50;;;;;;;7.93;5.68;;;17.30;96.50;;;;;;3585234;40;20445;-75
2021/07/04 01:35:17;;;;;;;7.68;5.88;;;17.30;96.60;;;;;;3585880;40;20048;-75
2021/07/04 01:37:43;;;;;;;9.10;8.30;;;17.30;96.60;;;;;;3586093;40;20048;-76
2021/07/04 01:40:10;;;;;;;10.98;7.82;;;17.30;97.10;;;;;;3585771;40;20351;-76
2021/07/04 01:42:39;;;;;;;7.35;6.65;;;17.20;96.70;;;;;;3586243;40;20056;-76
2021/07/04 01:45:06;;;;;;;12.20;9.27;;;17.20;96.60;;;;;;3585263;40;20032;-76
2021/07/04 01:47:36;;;;;;;9.52;8.32;;;17.20;96.70;;;;;;3585751;40;20068;-76
2021/07/04 01:50:04;;;;;;;8.57;7.78;;;17.20;96.80;;;;;;3585925;40;20103;-75
2021/07/04 01:52:30;;;;;;;10.65;9.27;;;17.20;96.90;;;;;;3585462;40;20040;-76
2021/07/04 01:54:55;;;;;;;13.02;8.68;;;17.20;97.00;;;;;;3585825;40;20044;-76
2021/07/04 01:57:21;;;;;;;10.52;9.30;;;17.20;97.30;;;;;;3584408;40;20125;-76
2021/07/04 01:59:50;;;;;;;12.18;10.77;;;17.10;97.10;;;;;;3585281;40;20056;-76
2021/07/04 02:02:16;;;;;;;12.80;11.45;;;17.10;97.10;;;;;;3584970;40;20036;-75
2021/07/04 02:04:43;;;;;;;15.15;12.05;;;17.10;97.30;;;;;;3584578;40;20107;-75
2021/07/04 02:07:16;;;;;;;16.30;12.82;;;17.10;97.40;;;;;;3585943;40;20037;-75
2021/07/04 02:09:46;;;;;;;21.52;12.30;;;17.10;97.50;;;;;;3584250;40;20062;-76
2021/07/04 02:12:15;;;;;;;14.98;13.27;;;17.10;97.50;;;;;;3585994;40;20242;-74
2021/07/04 02:14:41;;;;;;;18.83;14.82;;;17.10;97.70;;;;;;3587788;40;20056;-76
2021/07/04 02:17:08;;;;;;;14.57;13.07;;;17.10;97.70;;;;;;3585040;40;20044;-75
2021/07/04 02:19:35;;;;;;;18.05;15.57;;;17.10;97.80;;;;;;3585891;40;20318;-76
2021/07/04 02:22:02;;;;;;;14.80;13.32;;;17.10;97.70;;;;;;3585458;40;20146;-76
2021/07/04 02:24:29;;;;;;;20.85;17.83;;;17.10;97.60;;;;;;3577901;40;20053;-75
2021/07/04 02:26:55;;;;;;;20.05;16.23;;;17.10;97.80;;;;;;3574850;40;20116;-76
2021/07/04 02:29:21;;;;;;;16.92;15.18;;;17.10;97.90;;;;;;3584988;40;20042;-75
2021/07/04 02:31:47;;;;;;;15.70;14.02;;;17.20;97.90;;;;;;3576352;40;20404;-75
2021/07/04 02:34:13;;;;;;;21.52;16.95;;;17.10;97.90;;;;;;3575185;40;20043;-76
2021/07/04 02:36:39;;;;;;;18.15;16.38;;;17.20;97.90;;;;;;3584107;40;20056;-76
2021/07/04 02:39:05;;;;;;;20.48;15.73;;;17.20;97.90;;;;;;3584922;40;20043;-76
2021/07/04 02:41:32;;;;;;;22.92;17.65;;;17.20;97.90;;;;;;3582212;40;20441;-77
2021/07/04 02:43:58;;;;;;;17.30;15.48;;;17.20;97.90;;;;;;3583778;40;20036;-77
2021/07/04 02:46:24;;;;;;;21.48;18.75;;;17.20;97.90;;;;;;3584449;40;20129;-77
2021/07/04 02:48:50;;;;;;;23.23;20.13;;;17.20;98.10;;;;;;3575687;40;20051;-77
2021/07/04 02:51:16;;;;;;;19.00;17.05;;;17.20;98.10;;;;;;3582742;40;20043;-77
2021/07/04 02:53:41;;;;;;;21.73;17.38;;;17.20;98.30;;;;;;3585767;40;20045;-78
2021/07/04 02:56:08;;;;;;;18.83;15.48;;;17.20;98.30;;;;;;3585358;40;20068;-77
2021/07/04 02:58:34;;;;;;;22.30;18.95;;;17.20;98.30;;;;;;3576088;40;20076;-76
2021/07/04 03:01:02;;;;;;;19.63;16.60;;;17.20;98.40;;;;;;3585493;40;20072;-77
2021/07/04 03:03:29;;;;;;;21.08;17.38;;;17.20;98.40;;;;;;3585589;40;20056;-77
2021/07/04 03:05:55;;;;;;;25.45;19.00;;;17.10;98.50;;;;;;3583315;40;20052;-77
2021/07/04 03:08:20;;;;;;;22.60;18.05;;;17.20;98.60;;;;;;3585456;40;20044;-77
2021/07/04 03:10:47;;;;;;;19.83;16.02;;;17.10;98.40;;;;;;3585099;40;20044;-78
2021/07/04 03:13:12;;;;;;;25.38;19.88;;;17.10;98.50;;;;;;3580419;40;20045;-78
2021/07/04 03:15:38;;;;;;;21.63;17.92;;;17.10;98.50;;;;;;3586135;40;20068;-77
2021/07/04 03:18:04;;;;;;;21.23;17.42;;;17.10;98.50;;;;;;3586115;40;20138;-78
2021/07/04 03:20:30;;;;;;;21.90;18.98;;;17.10;98.60;;;;;;3586578;40;20045;-77
2021/07/04 03:22:56;;;;;;;20.88;16.08;;;17.10;98.60;;;;;;3578331;40;20037;-77
2021/07/04 03:25:22;;;;;;;23.45;19.45;;;17.10;98.70;;;;;;3585792;40;20043;-77
2021/07/04 03:27:48;;;;;;;23.50;18.88;;;17.10;99.10;;;;;;3585100;40;20129;-78
2021/07/04 03:30:18;;;;;;;31.25;20.45;;;17.10;99.00;;;;;;3584679;40;20033;-78
2021/07/04 03:32:44;;;;;;;26.70;21.38;;;17.10;99.20;;;;;;3577204;40;20044;-79
2021/07/04 03:35:12;;;;;;;22.02;18.55;;;17.10;99.30;;;;;;3579444;40;20044;-78
2021/07/04 03:37:38;;;;;;;24.95;22.25;;;17.10;99.30;;;;;;3586140;40;20040;-77
2021/07/04 03:40:06;;;;;;;22.48;16.92;;;17.20;99.20;;;;;;3585361;40;20194;-79
2021/07/04 03:42:32;;;;;;;24.08;19.17;;;17.10;99.20;;;;;;3581906;40;20354;-78
2021/07/04 03:44:58;;;;;;;22.67;18.02;;;17.20;99.10;;;;;;3586617;40;20125;-78
2021/07/04 03:47:25;;;;;;;19.70;17.40;;;17.20;99.00;;;;;;3586326;40;20053;-78
2021/07/04 03:49:53;;;;;;;26.05;20.05;;;17.20;99.10;;;;;;3585900;40;20076;-78
2021/07/04 03:52:19;;;;;;;24.17;20.27;;;17.20;99.10;;;;;;3585900;40;20129;-78
2021/07/04 03:54:45;;;;;;;19.65;16.48;;;17.20;99.30;;;;;;3586994;40;20040;-79
2021/07/04 03:57:23;;;;;;;19.95;16.70;;;17.20;99.30;;;;;;3583990;40;20040;-78
2021/07/04 03:59:56;;;;;;;20.08;15.82;;;17.20;99.30;;;;;;3586081;40;20036;-78
2021/07/04 04:02:24;;;;;;;17.02;15.23;;;17.20;99.30;;;;;;3586738;40;20076;-79
2021/07/04 04:04:54;;;;;;;22.27;19.20;;;17.20;99.30;;;;;;3587208;40;20044;-78
2021/07/04 04:07:38;;;;;;;25.17;18.85;;;17.20;99.50;;;;;;3577344;40;20055;-78
2021/07/04 04:10:06;;;;;;;21.80;19.50;;;17.30;99.20;;;;;;3586630;40;20720;-78
2021/07/04 04:12:32;;;;;;;27.05;19.88;;;17.30;99.30;;;;;;3586727;40;20048;-79
2021/07/04 04:15:00;;;;;;;26.70;18.70;;;17.30;99.40;;;;;;3596637;39;20059;-78
2021/07/04 04:17:29;;;;;;;21.65;18.52;;;17.30;99.50;;;;;;3595299;39;20040;-78
2021/07/04 04:19:55;;;;;;;32.00;22.02;;;17.30;99.70;;;;;;3585365;40;20055;-78
2021/07/04 04:22:22;;;;;;;23.58;21.00;;;17.30;99.80;;;;;;3583367;40;20036;-78
2021/07/04 04:24:48;;;;;;;27.27;21.63;;;17.40;99.80;;;;;;3584977;40;20048;-79
2021/07/04 04:27:15;;;;;;;23.83;21.30;;;17.40;99.70;;;;;;3582406;40;20068;-78
2021/07/04 04:29:41;;;;;;;30.20;24.50;;;17.40;99.80;;;;;;3576549;40;20100;-78
2021/07/04 04:32:07;;;;;;;28.52;22.33;;;17.40;99.70;;;;;;3586480;40;20041;-81
2021/07/04 04:34:33;;;;;;;28.83;22.55;;;17.40;99.80;;;;;;3586315;40;20146;-80
2021/07/04 04:37:04;;;;;;;28.00;21.63;;;17.40;99.70;;;;;;3582783;40;20401;-80
2021/07/04 04:39:29;;;;;;;29.90;20.95;;;17.40;99.90;;;;;;3586597;40;20427;-79
2021/07/04 04:41:56;;;;;;;24.55;20.33;;;17.40;99.90;;;;;;3575698;40;20085;-79
2021/07/04 04:44:21;;;;;;;25.83;21.92;;;17.50;99.90;;;;;;3576735;40;20132;-79
2021/07/04 04:46:47;;;;;;;22.67;19.50;;;17.50;99.70;;;;;;3575536;40;20052;-79
2021/07/04 04:49:14;;;;;;;20.83;18.75;;;17.50;99.80;;;;;;3576322;40;20408;-80
2021/07/04 04:51:40;;;;;;;28.85;20.80;;;17.50;99.80;;;;;;3575796;40;20123;-79
2021/07/04 04:54:07;;;;;;;22.08;18.25;;;17.60;99.80;;;;;;3575502;40;20052;-80
2021/07/04 04:56:33;;;;;;;30.25;23.63;;;17.60;99.90;;;;;;3577129;40;20090;-80
2021/07/04 04:58:59;;;;;;;27.33;22.42;;;17.70;99.90;;;;;;3585374;40;20051;-80
2021/07/04 05:01:27;;;;;;;28.30;22.00;;;17.70;99.90;;;;;;3585663;40;20115;-80
2021/07/04 05:03:57;;;;;;;26.70;21.77;;;17.80;99.90;;;;;;3585520;40;20063;-80
2021/07/04 05:06:23;;;;;;;26.98;21.92;;;17.80;99.90;;;;;;3585707;40;20319;-81
2021/07/04 05:08:49;;;;;;;30.30;21.23;;;17.80;99.90;;;;;;3586567;40;20040;-82
2021/07/04 05:11:15;;;;;;;28.83;22.48;;;17.80;99.90;;;;;;3586281;40;20303;-80
2021/07/04 05:13:41;;;;;;;25.15;21.27;;;17.90;99.90;;;;;;3592055;40;20036;-83
2021/07/04 05:16:07;;;;;;;29.27;23.33;;;17.90;99.90;;;;;;3595994;39;20107;-81
2021/07/04 05:18:34;;;;;;;28.13;23.17;;;18.00;99.90;;;;;;3586527;40;20035;-82
2021/07/04 05:21:00;;;;;;;26.08;22.40;;;18.00;99.90;;;;;;3576585;40;20036;-82
2021/07/04 05:23:26;;;;;;;24.85;21.00;;;18.00;99.90;;;;;;3582191;40;20040;-80
2021/07/04 05:25:55;;;;;;;23.52;20.20;;;18.00;99.90;;;;;;3585613;40;20066;-83
2021/07/04 05:28:23;;;;;;;22.77;19.85;;;18.10;99.90;;;;;;3585429;40;20319;-82
2021/07/04 05:30:50;;;;;;;25.27;21.27;;;18.10;99.90;;;;;;3585334;40;20040;-81
2021/07/04 05:33:15;;;;;;;20.23;18.15;;;18.20;99.90;;;;;;3585014;40;20094;-84
2021/07/04 05:35:41;;;;;;;21.80;18.35;;;18.20;99.90;;;;;;3582744;40;20048;-83
2021/07/04 05:38:17;;;;;;;20.92;18.73;;;18.20;99.90;;;;;;3575088;40;20159;-83
2021/07/04 05:40:42;;;;;;;20.00;17.35;;;18.20;99.90;;;;;;3583364;40;20418;-83
2021/07/04 05:43:08;;;;;;;20.23;17.80;;;18.20;99.90;;;;;;3580936;40;20130;-81
2021/07/04 05:45:34;;;;;;;22.17;17.40;;;18.20;99.90;;;;;;3576816;40;20481;-82
2021/07/04 05:48:00;;;;;;;20.30;18.17;;;18.20;99.90;;;;;;3582337;40;20419;-81
2021/07/04 05:50:26;;;;;;;20.00;16.88;;;18.30;99.90;;;;;;3583489;40;20041;-81
2021/07/04 05:52:52;;;;;;;20.33;17.90;;;18.30;99.90;;;;;;3582715;40;20036;-81
2021/07/04 05:55:18;;;;;;;22.45;18.38;;;18.30;99.90;;;;;;3585333;40;20303;-82
2021/07/04 05:57:44;;;;;;;20.70;18.33;;;18.40;99.90;;;;;;3584733;40;20568;-82
2021/07/04 06:00:11;;;;;;;22.35;17.60;;;18.40;99.90;;;;;;3582594;40;20036;-84
2021/07/04 06:02:37;;;;;;;21.55;17.33;;;18.40;99.90;;;;;;3585464;40;20122;-82
2021/07/04 06:05:04;;;;;;;22.30;18.95;;;18.40;99.90;;;;;;3582379;40;20037;-81
2021/07/04 06:07:30;;;;;;;22.30;19.23;;;18.40;99.90;;;;;;3573826;40;20316;-81
2021/07/04 06:09:56;;;;;;;23.83;18.05;;;18.40;99.90;;;;;;3583190;40;20036;-82
2021/07/04 06:12:22;;;;;;;23.05;18.40;;;18.40;99.90;;;;;;3583784;40;20056;-82
2021/07/04 06:14:47;;;;;;;19.77;17.77;;;18.50;99.90;;;;;;3585080;40;20656;-82
2021/07/04 06:17:13;;;;;;;20.02;17.23;;;18.60;99.90;;;;;;3583948;40;20033;-81
2021/07/04 06:19:39;;;;;;;19.65;16.80;;;18.60;99.90;;;;;;3585346;40;20055;-84
2021/07/04 06:22:05;;;;;;;21.13;18.38;;;18.60;99.90;;;;;;3585626;40;20331;-83
2021/07/04 06:24:31;;;;;;;22.85;18.67;;;18.70;99.90;;;;;;3584832;40;20032;-81
2021/07/04 06:26:57;;;;;;;21.80;19.52;;;18.70;99.90;;;;;;3580795;40;20353;-83
2021/07/04 06:29:23;;;;;;;23.23;19.67;;;18.80;99.90;;;;;;3581784;40;20332;-82
2021/07/04 06:31:49;;;;;;;22.48;19.80;;;18.90;99.90;;;;;;3582895;40;20043;-81
2021/07/04 06:34:15;;;;;;;20.92;18.60;;;19.00;99.90;;;;;;3580913;40;20047;-80
2021/07/04 06:36:41;;;;;;;23.25;19.17;;;19.00;99.90;;;;;;3583285;40;20036;-81
2021/07/04 06:39:07;;;;;;;21.35;18.65;;;19.00;99.90;;;;;;3582875;40;20048;-82
2021/07/04 06:41:32;;;;;;;24.95;19.88;;;19.10;99.90;;;;;;3584058;40;20037;-81
2021/07/04 06:44:00;;;;;;;22.92;17.95;;;19.10;99.90;;;;;;3584390;40;20266;-83
2021/07/04 06:46:26;;;;;;;19.48;17.38;;;19.10;99.90;;;;;;3585400;40;20036;-82
2021/07/04 06:48:52;;;;;;;22.17;17.38;;;19.00;99.90;;;;;;3584954;40;20040;-82
2021/07/04 06:51:18;;;;;;;22.60;20.20;;;19.00;99.90;;;;;;3582594;40;20122;-82
2021/07/04 06:53:44;;;;;;;21.05;17.73;;;19.00;99.90;;;;;;3585278;40;20336;-82
2021/07/04 06:56:10;;;;;;;21.13;18.85;;;19.00;99.90;;;;;;3584418;40;20039;-81
2021/07/04 06:58:36;;;;;;;20.55;18.45;;;19.00;99.90;;;;;;3584595;40;20059;-80
2021/07/04 07:01:02;;;;;;;23.45;19.48;;;19.00;99.90;;;;;;3582917;40;20060;-82
2021/07/04 07:03:28;;;;;;;21.25;19.05;;;19.00;99.90;;;;;;3580509;40;20186;-82
2021/07/04 07:05:58;;;;;;;22.73;18.63;;;19.00;99.90;;;;;;3584669;40;20063;-81
2021/07/04 07:08:23;;;;;;;22.20;17.80;;;19.10;99.90;;;;;;3584683;40;20047;-81
2021/07/04 07:10:50;;;;;;;19.63;17.52;;;19.10;99.90;;;;;;3583456;40;20072;-82
2021/07/04 07:13:16;;;;;;;19.75;17.17;;;19.10;99.90;;;;;;3583263;40;20085;-82
2021/07/04 07:15:45;;;;;;;18.45;16.35;;;19.10;99.90;;;;;;3584840;40;20538;-81
2021/07/04 07:18:10;;;;;;;15.02;13.18;;;19.20;99.90;;;;;;3575958;40;20040;-81
2021/07/04 07:20:37;;;;;;;14.30;12.80;;;19.20;99.90;;;;;;3585258;40;20040;-83
2021/07/04 07:23:03;;;;;;;14.20;12.70;;;19.20;99.90;;;;;;3575870;40;20048;-81
2021/07/04 07:25:31;;;;;;;13.88;11.63;;;19.30;99.90;;;;;;3580176;40;20071;-82
2021/07/04 07:27:57;;;;;;;14.45;12.73;;;19.30;99.90;;;;;;3579842;40;20216;-81
2021/07/04 07:30:23;;;;;;;13.23;11.93;;;19.30;99.90;;;;;;3581776;40;20041;-82
2021/07/04 07:32:49;;;;;;;13.20;11.07;;;19.40;99.90;;;;;;3584515;40;20051;-82
2021/07/04 07:35:16;;;;;;;13.45;12.02;;;19.40;99.90;;;;;;3581988;40;20051;-83
2021/07/04 07:37:42;;;;;;;12.05;10.85;;;19.60;99.90;;;;;;3584308;40;20266;-80
2021/07/04 07:40:08;;;;;;;11.52;9.77;;;19.60;99.80;;;;;;3584520;40;20044;-80
2021/07/04 07:42:35;;;;;;;11.95;10.85;;;19.70;99.70;;;;;;3584954;40;20098;-80
2021/07/04 07:45:05;;;;;;;12.05;10.95;;;19.80;99.60;;;;;;3585432;40;20436;-80
2021/07/04 07:47:31;;;;;;;10.95;9.95;;;19.90;99.50;;;;;;3574040;40;20049;-82
2021/07/04 07:50:01;;;;;;;12.40;11.20;;;20.00;99.40;;;;;;3582105;40;20047;-81
2021/07/04 07:52:30;;;;;;;11.07;9.95;;;20.00;99.30;;;;;;3585184;40;20040;-81
2021/07/04 07:54:56;;;;;;;11.93;10.82;;;20.10;99.30;;;;;;3583158;40;20089;-81
2021/07/04 07:57:22;;;;;;;11.80;10.60;;;20.10;99.20;;;;;;3568490;40;20040;-80
2021/07/04 07:59:49;;;;;;;12.48;11.27;;;20.10;99.20;;;;;;3585953;40;20044;-81
2021/07/04 08:02:16;;;;;;;12.15;10.93;;;20.10;99.10;;;;;;3580651;40;20045;-81
2021/07/04 08:04:42;;;;;;;11.32;10.25;;;20.20;99.10;;;;;;3585296;40;20048;-81
2021/07/04 08:07:08;;;;;;;10.60;9.60;;;20.20;99.20;;;;;;3581929;40;20399;-80
2021/07/04 08:09:34;;;;;;;10.93;9.65;;;20.40;99.20;;;;;;3584193;40;20344;-81
2021/07/04 08:12:00;;;;;;;11.75;10.65;;;20.40;99.00;;;;;;3584638;40;20052;-81
2021/07/04 08:14:26;;;;;;;9.77;8.88;;;20.50;98.90;;;;;;3578316;40;20040;-81
2021/07/04 08:16:52;;;;;;;10.20;9.30;;;20.60;99.00;;;;;;3585614;40;20130;-80
2021/07/04 08:19:17;;;;;;;10.63;9.75;;;20.60;98.70;;;;;;3584426;40;20040;-80
2021/07/04 08:21:43;;;;;;;10.73;9.73;;;20.70;98.70;;;;;;3577362;40;20044;-81
2021/07/04 08:24:10;;;;;;;10.98;8.82;;;20.70;98.60;;;;;;3584160;40;20080;-80
2021/07/04 08:26:35;;;;;;;8.85;8.02;;;20.90;98.80;;;;;;3582383;40;20042;-79
2021/07/04 08:29:01;;;;;;;9.18;8.35;;;21.10;98.80;;;;;;3585005;40;20230;-80
2021/07/04 08:31:28;;;;;;;9.63;8.63;;;21.40;98.50;;;;;;3583251;40;20079;-80
2021/07/04 08:33:57;;;;;;;8.55;7.82;;;21.60;98.60;;;;;;3583588;40;20055;-80
2021/07/04 08:36:25;;;;;;;9.82;8.85;;;21.90;98.40;;;;;;3585284;40;20041;-80
2021/07/04 08:38:51;;;;;;;8.82;8.10;;;22.20;98.40;;;;;;3584713;40;20747;-81
2021/07/04 08:41:17;;;;;;;7.85;7.05;;;22.30;97.90;;;;;;3584727;40;20036;-80
2021/07/04 08:43:43;;;;;;;9.98;8.05;;;22.50;97.90;;;;;;3585134;40;20312;-80
2021/07/04 08:46:11;;;;;;;7.95;7.28;;;22.50;97.80;;;;;;3584192;40;20106;-79
2021/07/04 08:48:39;;;;;;;10.38;9.48;;;22.60;97.30;;;;;;3582707;40;20126;-81
2021/07/04 08:51:06;;;;;;;9.75;8.75;;;22.60;96.70;;;;;;3584518;40;20036;-81
2021/07/04 08:53:32;;;;;;;8.85;7.95;;;22.40;96.90;;;;;;3581362;40;20499;-80
2021/07/04 08:55:58;;;;;;;9.63;7.97;;;22.40;97.30;;;;;;3583768;40;20112;-80
2021/07/04 08:58:26;;;;;;;8.13;7.30;;;22.40;96.80;;;;;;3582119;40;20041;-80
2021/07/04 09:01:14;;;;;;;8.23;7.55;;;22.40;96.70;;;;;;3583848;40;20062;-82
2021/07/04 09:03:46;;;;;;;8.65;7.90;;;22.50;95.60;;;;;;3584972;40;20043;-80
2021/07/04 09:06:12;;;;;;;8.75;7.95;;;22.50;96.10;;;;;;3584633;40;20129;-78
2021/07/04 09:08:39;;;;;;;9.50;8.50;;;22.50;96.10;;;;;;3585130;40;20071;-79
2021/07/04 09:11:18;;;;;;;7.00;6.47;;;22.50;96.10;;;;;;3585312;40;20052;-79
2021/07/04 09:13:46;;;;;;;6.80;6.20;;;22.50;95.30;;;;;;3587884;40;20051;-80
2021/07/04 09:16:20;;;;;;;7.07;6.45;;;22.60;95.90;;;;;;3585259;40;20033;-80
2021/07/04 09:19:09;;;;;;;7.82;7.03;;;22.60;95.10;;;;;;3580938;40;20060;-79
2021/07/04 09:21:36;;;;;;;8.15;7.22;;;22.80;94.90;;;;;;3584825;40;20327;-80
2021/07/04 09:24:20;;;;;;;7.22;6.55;;;22.90;95.60;;;;;;3583349;40;20044;-79
2021/07/04 09:26:46;;;;;;;7.82;7.13;;;23.00;95.50;;;;;;3583361;40;20032;-79
2021/07/04 09:29:14;;;;;;;7.65;7.00;;;23.10;95.10;;;;;;3585955;40;20063;-79
2021/07/04 09:31:45;;;;;;;7.57;6.60;;;23.10;94.80;;;;;;3585767;40;20324;-78
2021/07/04 09:34:12;;;;;;;9.15;8.23;;;23.10;95.20;;;;;;3583349;40;20125;-83
2021/07/04 09:36:40;;;;;;;7.25;6.55;;;23.20;94.80;;;;;;3586344;40;20059;-80
2021/07/04 09:39:18;;;;;;;9.20;7.95;;;23.20;95.00;;;;;;3579455;40;20286;-80
2021/07/04 09:42:09;;;;;;;8.13;7.35;;;23.20;93.70;;;;;;3580766;40;20323;-80
2021/07/04 09:44:37;;;;;;;9.02;8.13;;;23.00;93.30;;;;;;3583836;40;20038;-79
2021/07/04 09:47:17;;;;;;;8.20;7.50;;;23.00;94.70;;;;;;3583383;40;20047;-80
2021/07/04 09:49:44;;;;;;;6.85;6.07;;;22.90;93.40;;;;;;3582058;40;20041;-79
2021/07/04 09:52:21;;;;;;;8.05;7.25;;;22.90;94.70;;;;;;3582818;40;20052;-81
2021/07/04 09:55:08;;;;;;;8.63;7.82;;;22.90;93.90;;;;;;3580765;40;20317;-81
2021/07/04 09:57:57;;;;;;;6.82;6.22;;;22.80;92.70;;;;;;3584660;40;20044;-79
2021/07/04 10:00:26;;;;;;;6.90;6.20;;;22.80;93.50;;;;;;3587145;40;20575;-79
2021/07/04 10:03:24;;;;;;;8.13;7.40;;;22.80;94.50;;;;;;3584859;40;20044;-80
2021/07/04 10:06:00;;;;;;;7.65;6.95;;;22.80;93.10;;;;;;3581534;40;20043;-81
2021/07/04 10:08:35;;;;;;;6.00;5.50;;;22.80;94.40;;;;;;3585702;40;20028;-80
2021/07/04 10:11:10;;;;;;;7.40;6.70;;;22.90;94.40;;;;;;3585435;40;20048;-80
2021/07/04 10:13:47;;;;;;;6.80;6.30;;;22.90;94.00;;;;;;3584678;40;20059;-80
2021/07/04 10:16:17;;;;;;;6.82;6.13;;;22.90;94.40;;;;;;3583034;40;20041;-79
2021/07/04 10:18:48;;;;;;;6.40;5.85;;;23.00;94.50;;;;;;3582587;40;20200;-79
2021/07/04 10:21:15;;;;;;;7.90;7.10;;;23.10;94.30;;;;;;3581004;40;20060;-80
2021/07/04 10:23:50;;;;;;;7.40;5.90;;;23.20;93.90;;;;;;3581977;40;20049;-81
2021/07/04 10:26:17;;;;;;;5.25;4.75;;;23.30;93.90;;;;;;3582709;40;20281;-81
2021/07/04 10:28:43;;;;;;;7.20;6.60;;;23.50;94.60;;;;;;3585021;40;20040;-81
2021/07/04 10:31:20;;;;;;;7.20;6.43;;;23.80;94.00;;;;;;3583864;40;20318;-81
2021/07/04 10:33:46;;;;;;;5.90;5.35;;;24.10;93.60;;;;;;3585269;40;20051;-82
2021/07/04 10:36:19;;;;;;;6.50;5.80;;;24.20;93.30;;;;;;3583983;40;20048;-80
2021/07/04 10:38:47;;;;;;;;;;;24.40;92.90;;;;;;3581403;40;20047;-80
2021/07/04 10:41:28;;;;;;;10.77;9.77;;;24.40;90.50;;;;;;3581732;40;19943;-84
2021/07/04 10:44:10;;;;;;;8.63;7.82;;;24.50;92.70;;;;;;3582318;40;20032;-80
2021/07/04 10:46:43;;;;;;;10.43;9.35;;;24.70;93.50;;;;;;3580642;40;20324;-81
2021/07/04 10:49:18;;;;;;;8.38;7.30;;;25.00;92.70;;;;;;3584397;40;20335;-79
2021/07/04 10:52:19;;;;;;;8.52;7.72;;;25.00;90.60;;;;;;3581317;40;20048;-78
2021/07/04 10:54:51;;;;;;;9.15;8.35;;;25.10;90.50;;;;;;3577932;40;20031;-80
2021/07/04 10:57:50;;;;;;;8.80;7.90;;;25.40;92.70;;;;;;3584111;40;20332;-83
2021/07/04 11:00:22;;;;;;;10.32;9.32;;;25.60;90.40;;;;;;3582413;40;20055;-79
2021/07/04 11:02:54;;;;;;;8.07;7.28;;;25.70;92.00;;;;;;3584687;40;20055;-78
2021/07/04 11:05:39;;;;;;;10.50;9.55;;;25.80;92.00;;;;;;3582226;40;20064;-79
2021/07/04 11:08:19;;;;;;;13.05;11.85;;;25.90;87.20;;;;;;3580270;40;20041;-78
2021/07/04 11:11:03;;;;;;;12.70;11.48;;;26.00;86.80;;;;;;3581590;40;20032;-79
2021/07/04 11:13:32;;;;;;;11.77;10.75;;;26.00;83.00;;;;;;3582255;40;20301;-81
2021/07/04 11:16:07;;;;;;;11.57;10.57;;;25.90;90.30;;;;;;3580101;40;20033;-81
2021/07/04 11:18:54;;;;;;;12.82;11.27;;;25.70;88.30;;;;;;3582206;40;20033;-79
2021/07/04 11:21:49;;;;;;;11.82;10.82;;;25.50;88.30;;;;;;3584058;40;20460;-78
2021/07/04 11:24:21;;;;;;;11.85;10.65;;;25.30;88.10;;;;;;3583327;40;20084;-79
2021/07/04 11:27:20;;;;;;;11.00;9.90;;;25.50;91.00;;;;;;3584563;40;20040;-79
2021/07/04 11:30:20;;;;;;;9.98;8.95;;;25.80;84.60;;;;;;3585865;40;20131;-81
2021/07/04 11:32:46;;;;;;;11.60;10.40;;;26.20;85.70;;;;;;3584151;40;20138;-80
2021/07/04 11:35:12;;;;;;;10.57;9.50;;;26.50;90.30;;;;;;3583106;40;20066;-78
2021/07/04 11:37:39;;;;;;;9.40;8.48;;;26.40;87.60;;;;;;3583052;40;20054;-85
2021/07/04 11:40:06;;;;;;;11.70;10.60;;;26.30;90.20;;;;;;3583959;40;20052;-82
2021/07/04 11:42:32;;;;;;;10.00;9.20;;;26.40;90.20;;;;;;3583458;40;20257;-80
2021/07/04 11:44:58;;;;;;;9.38;8.57;;;26.40;88.80;;;;;;3585257;40;20122;-79
2021/07/04 11:47:23;;;;;;;12.07;10.07;;;26.30;88.40;;;;;;3584684;40;20257;-80
2021/07/04 11:49:49;;;;;;;11.38;9.27;;;26.10;87.70;;;;;;3585781;40;20040;-81
2021/07/04 11:52:19;;;;;;;9.02;8.27;;;25.80;87.50;;;;;;3585050;40;20040;-80
2021/07/04 11:54:46;;;;;;;8.93;8.18;;;25.70;86.30;;;;;;3584365;40;20048;-80
2021/07/04 11:57:30;;;;;;;9.48;8.60;;;25.70;88.40;;;;;;3585430;40;20047;-79
2021/07/04 11:59:59;;;;;;;12.15;10.57;;;25.60;86.50;;;;;;3584497;40;20283;-80
2021/07/04 12:02:26;;;;;;;9.18;8.38;;;25.40;88.30;;;;;;3586990;40;20044;-80
2021/07/04 12:04:53;;;;;;;8.27;7.57;;;25.30;88.70;;;;;;3580960;40;20047;-79
2021/07/04 12:07:26;;;;;;;9.40;8.60;;;25.50;89.40;;;;;;3582652;40;20133;-80
2021/07/04 12:09:56;;;;;;;8.73;8.00;;;25.70;87.40;;;;;;3584280;40;20252;-80
2021/07/04 12:12:23;;;;;;;8.90;8.02;;;26.00;88.50;;;;;;3584090;40;20043;-79
2021/07/04 12:15:03;;;;;;;6.47;5.97;;;26.20;87.70;;;;;;3585489;40;20051;-79
2021/07/04 12:17:37;;;;;;;5.85;5.32;;;26.30;87.30;;;;;;3582376;40;20228;-79
2021/07/04 12:20:12;;;;;;;6.53;6.03;;;26.70;87.80;;;;;;3582917;40;20036;-80
2021/07/04 12:22:54;;;;;;;6.43;5.80;;;27.00;85.50;;;;;;3581179;40;20266;-80
2021/07/04 12:25:21;;;;;;;5.20;4.90;;;27.20;78.10;;;;;;3581490;40;20041;-82
2021/07/04 12:27:57;;;;;;;6.40;5.90;;;27.00;85.60;;;;;;3582246;40;20063;-79
2021/07/04 12:30:28;;;;;;;7.70;6.75;;;27.00;81.70;;;;;;3582993;40;20037;-80
2021/07/04 12:33:14;;;;;;;6.55;6.05;;;26.90;84.60;;;;;;3583706;40;20052;-80
2021/07/04 12:35:49;;;;;;;6.78;6.15;;;26.90;81.90;;;;;;3582766;40;20036;-79
2021/07/04 12:38:22;;;;;;;7.25;6.55;;;26.90;85.50;;;;;;3583439;40;20044;-80
2021/07/04 12:41:00;;;;;;;6.18;5.75;;;26.90;85.40;;;;;;3585192;40;20036;-80
2021/07/04 12:43:38;;;;;;;6.95;6.35;;;26.70;84.70;;;;;;3581805;40;20101;-80
2021/07/04 12:46:16;;;;;;;5.80;5.30;;;26.80;83.50;;;;;;3583057;40;20125;-81